createdAt,value
2022-10-21T00:00:58.115Z,0.72
2022-10-21T00:03:38.286Z,0.73
2022-10-21T00:06:07.650Z,0.56
2022-10-21T00:08:35.725Z,0.59
2022-10-21T00:11:06.467Z,0.48
2022-10-21T00:13:35.818Z,0.47
2022-10-21T00:16:08.290Z,0.41
2022-10-21T00:18:38.688Z,0.42
2022-10-21T00:21:09.069Z,0.62
2022-10-21T00:23:36.944Z,0.76
2022-10-21T00:26:04.863Z,0.84
2022-10-21T00:28:33.199Z,0.81
2022-10-21T00:31:00.951Z,0.78
2022-10-21T00:33:29.197Z,0.73
2022-10-21T00:36:03.850Z,0.66
2022-10-21T00:38:33.124Z,0.66
2022-10-21T00:41:01.487Z,0.67
2022-10-21T00:43:29.792Z,0.65
2022-10-21T00:46:03.657Z,0.63
2022-10-21T00:48:31.571Z,0.62
2022-10-21T00:51:12.968Z,0.68
2022-10-21T00:53:44.026Z,0.63
2022-10-21T00:56:20.990Z,0.54
2022-10-21T00:58:49.122Z,0.53
2022-10-21T01:01:19.389Z,0.54
2022-10-21T01:03:50.676Z,0.46
2022-10-21T01:06:23.083Z,0.43
2022-10-21T01:08:54.523Z,0.47
2022-10-21T01:11:23.583Z,0.54
2022-10-21T01:14:18.347Z,0.58
2022-10-21T01:16:57.591Z,0.60
2022-10-21T01:19:52.001Z,0.58
2022-10-21T01:22:27.608Z,0.74
2022-10-21T01:25:31.791Z,0.66
2022-10-21T01:28:24.461Z,0.73
2022-10-21T01:30:55.687Z,0.62
2022-10-21T01:33:38.058Z,0.56
2022-10-21T01:36:26.277Z,0.54
2022-10-21T01:39:08.245Z,0.57
2022-10-21T01:41:36.009Z,0.55
2022-10-21T01:44:57.630Z,0.60
2022-10-21T01:47:53.201Z,0.61
2022-10-21T01:50:27.513Z,0.59
2022-10-21T01:53:03.006Z,0.52
2022-10-21T01:55:32.651Z,0.44
2022-10-21T01:58:11.853Z,0.43
2022-10-21T02:00:41.429Z,0.46
2022-10-21T02:03:14.386Z,0.45
2022-10-21T02:05:42.371Z,0.40
2022-10-21T02:08:10.339Z,0.49
2022-10-21T02:10:43.329Z,0.44
2022-10-21T02:13:14.969Z,0.56
2022-10-21T02:15:43.734Z,0.70
2022-10-21T02:18:26.614Z,0.75
2022-10-21T02:20:59.474Z,0.70
2022-10-21T02:23:51.207Z,0.61
2022-10-21T02:26:19.654Z,0.57
2022-10-21T02:28:48.097Z,0.52
2022-10-21T02:31:39.907Z,0.52
2022-10-21T02:34:31.462Z,0.41
2022-10-21T02:37:23.764Z,0.32
2022-10-21T02:40:32.759Z,0.49
2022-10-21T02:43:16.620Z,0.38
2022-10-21T02:45:46.626Z,0.38
2022-10-21T02:48:14.448Z,0.38
2022-10-21T02:50:42.384Z,0.45
2022-10-21T02:53:11.683Z,0.50
2022-10-21T02:55:39.438Z,0.47
2022-10-21T02:58:07.378Z,0.49
2022-10-21T03:00:35.215Z,0.47
2022-10-21T03:03:02.854Z,0.52
2022-10-21T03:08:03.186Z,0.47
2022-10-21T03:10:31.156Z,0.43
2022-10-21T03:12:58.706Z,0.39
2022-10-21T03:15:26.724Z,0.48
2022-10-21T03:17:54.285Z,0.43
2022-10-21T03:20:22.186Z,0.47
2022-10-21T03:22:49.729Z,0.48
2022-10-21T03:25:17.817Z,0.47
2022-10-21T03:27:46.840Z,0.35
2022-10-21T03:30:14.934Z,0.36
2022-10-21T03:32:42.524Z,0.49
2022-10-21T03:35:10.434Z,0.56
2022-10-21T03:37:38.163Z,0.68
2022-10-21T03:40:09.984Z,0.63
2022-10-21T03:42:40.502Z,0.46
2022-10-21T03:45:09.271Z,0.49
2022-10-21T03:47:36.903Z,0.43
2022-10-21T03:50:08.891Z,0.40
2022-10-21T03:52:40.547Z,0.36
2022-10-21T03:55:08.869Z,0.37
2022-10-21T03:57:36.511Z,0.49
2022-10-21T04:00:06.152Z,0.46
2022-10-21T04:02:40.753Z,0.50
2022-10-21T04:05:09.529Z,0.55
2022-10-21T04:07:37.204Z,0.52
2022-10-21T04:10:06.342Z,0.49
2022-10-21T04:12:33.959Z,0.51
2022-10-21T04:15:02.230Z,0.41
2022-10-21T04:17:29.876Z,0.44
2022-10-21T04:19:57.702Z,0.36
2022-10-21T04:22:25.326Z,0.43
2022-10-21T04:24:53.082Z,0.45
2022-10-21T04:27:20.692Z,0.39
2022-10-21T04:29:48.897Z,0.39
2022-10-21T04:32:16.438Z,0.37
2022-10-21T04:34:45.556Z,0.47
2022-10-21T04:37:13.394Z,0.40
2022-10-21T04:39:41.167Z,0.46
2022-10-21T04:42:08.931Z,0.35
2022-10-21T04:44:39.695Z,0.29
2022-10-21T04:47:07.932Z,0.39
2022-10-21T04:49:35.677Z,0.45
2022-10-21T04:52:03.427Z,0.54
2022-10-21T04:54:31.258Z,0.42
2022-10-21T04:56:58.841Z,0.49
2022-10-21T04:59:26.724Z,0.49
2022-10-21T05:01:54.350Z,0.56
2022-10-21T05:04:22.089Z,0.81
2022-10-21T05:06:49.603Z,0.83
2022-10-21T05:09:17.615Z,0.84
2022-10-21T05:11:45.308Z,0.85
2022-10-21T05:14:13.102Z,0.92
2022-10-21T05:16:40.837Z,1.05
2022-10-21T05:19:08.634Z,1.18
2022-10-21T05:24:05.075Z,1.25
2022-10-21T05:26:32.689Z,1.29
2022-10-21T05:29:00.518Z,1.50
2022-10-21T05:31:28.279Z,1.64
2022-10-21T05:33:56.604Z,1.75
2022-10-21T05:36:24.366Z,1.81
2022-10-21T05:38:52.367Z,2.03
2022-10-21T05:41:20.107Z,2.01
2022-10-21T05:43:47.874Z,2.06
2022-10-21T05:46:15.401Z,1.92
2022-10-21T05:48:43.219Z,2.08
2022-10-21T05:51:11.021Z,2.40
2022-10-21T05:53:39.876Z,2.67
2022-10-21T05:56:08.510Z,2.87
2022-10-21T05:58:36.739Z,3.09
2022-10-21T06:01:04.757Z,3.56
2022-10-21T06:03:34.970Z,3.65
2022-10-21T06:06:05.249Z,3.68
2022-10-21T06:08:35.912Z,3.55
2022-10-21T06:11:06.929Z,3.60
2022-10-21T06:13:35.589Z,3.49
2022-10-21T06:18:31.978Z,3.67
2022-10-21T06:21:00.241Z,3.55
2022-10-21T06:23:28.541Z,3.57
2022-10-21T06:26:14.269Z,3.62
2022-10-21T06:28:43.478Z,3.71
2022-10-21T06:31:14.551Z,3.89
2022-10-21T06:33:42.444Z,3.84
2022-10-21T06:36:10.501Z,3.92
2022-10-21T06:38:38.784Z,3.91
2022-10-21T06:41:12.333Z,3.92
2022-10-21T06:43:42.423Z,3.89
2022-10-21T06:46:12.774Z,4.04
2022-10-21T06:48:41.054Z,4.00
2022-10-21T06:51:12.667Z,4.16
2022-10-21T06:53:40.831Z,4.24
2022-10-21T06:56:12.633Z,3.96
2022-10-21T06:58:43.476Z,4.06
2022-10-21T07:01:27.394Z,4.20
2022-10-21T07:04:01.355Z,4.33
2022-10-21T07:06:29.635Z,4.35
2022-10-21T07:08:58.639Z,4.61
2022-10-21T07:11:28.197Z,4.94
2022-10-21T07:13:56.666Z,5.00
2022-10-21T07:16:29.991Z,5.40
2022-10-21T07:18:58.122Z,5.71
2022-10-21T07:21:28.948Z,5.82
2022-10-21T07:23:59.237Z,6.14
2022-10-21T07:26:29.286Z,6.23
2022-10-21T07:28:59.737Z,6.31
2022-10-21T07:31:28.776Z,6.39
2022-10-21T07:33:56.714Z,6.50
2022-10-21T07:36:26.903Z,6.83
2022-10-21T07:38:57.234Z,7.13
2022-10-21T07:41:30.614Z,7.67
2022-10-21T07:43:59.423Z,8.84
2022-10-21T07:46:27.399Z,10.47
2022-10-21T07:48:56.297Z,11.55
2022-10-21T07:51:28.574Z,12.68
2022-10-21T07:54:00.258Z,13.38
2022-10-21T07:56:41.248Z,14.19
2022-10-21T07:59:12.849Z,14.83
2022-10-21T08:01:44.863Z,15.16
2022-10-21T08:04:15.936Z,14.68
2022-10-21T08:06:47.029Z,14.08
2022-10-21T08:09:16.039Z,13.42
2022-10-21T08:11:43.957Z,12.76
2022-10-21T08:14:13.049Z,12.38
2022-10-21T08:16:41.471Z,11.91
2022-10-21T08:19:17.104Z,11.61
2022-10-21T08:21:44.860Z,11.11
2022-10-21T08:24:12.748Z,10.86
2022-10-21T08:26:40.612Z,10.91
2022-10-21T08:29:08.445Z,11.15
2022-10-21T08:31:36.121Z,10.72
2022-10-21T08:34:03.927Z,10.67
2022-10-21T08:36:31.573Z,10.60
2022-10-21T08:38:59.741Z,10.61
2022-10-21T08:41:30.592Z,10.97
2022-10-21T08:44:17.711Z,11.72
2022-10-21T08:46:56.042Z,11.99
2022-10-21T08:49:37.337Z,11.79
2022-10-21T08:52:15.453Z,11.71
2022-10-21T08:54:50.215Z,11.85
2022-10-21T08:57:19.890Z,12.01
2022-10-21T08:59:48.174Z,12.35
2022-10-21T09:02:46.948Z,12.52
2022-10-21T09:05:40.232Z,12.65
2022-10-21T09:08:31.387Z,12.54
2022-10-21T09:11:02.528Z,12.39
2022-10-21T09:13:58.490Z,12.27
2022-10-21T09:16:48.383Z,12.16
2022-10-21T09:19:22.472Z,11.76
2022-10-21T09:22:34.666Z,11.93
2022-10-21T09:25:21.010Z,11.68
2022-10-21T09:27:55.921Z,11.66
2022-10-21T09:30:25.264Z,11.80
2022-10-21T09:32:58.801Z,12.25
2022-10-21T09:35:35.114Z,12.38
2022-10-21T09:38:21.840Z,12.24
2022-10-21T09:40:52.707Z,12.33
2022-10-21T09:43:24.761Z,12.83
2022-10-21T09:45:52.864Z,13.36
2022-10-21T09:48:33.701Z,13.90
2022-10-21T09:51:14.416Z,14.40
2022-10-21T09:53:54.029Z,14.27
2022-10-21T09:56:31.375Z,14.10
2022-10-21T09:59:14.000Z,14.37
2022-10-21T10:01:44.662Z,14.81
2022-10-21T10:04:31.678Z,15.06
2022-10-21T10:07:19.610Z,15.05
2022-10-21T10:09:48.305Z,14.59
2022-10-21T10:12:21.521Z,14.41
2022-10-21T10:14:49.637Z,14.08
2022-10-21T10:17:26.121Z,13.83
2022-10-21T10:20:08.208Z,13.46
2022-10-21T10:22:45.265Z,13.44
2022-10-21T10:25:22.739Z,13.28
2022-10-21T10:27:55.715Z,13.19
2022-10-21T10:30:25.551Z,13.21
2022-10-21T10:32:56.113Z,12.85
2022-10-21T10:35:33.733Z,12.66
2022-10-21T10:38:02.737Z,12.43
2022-10-21T10:40:41.923Z,12.48
2022-10-21T10:43:29.373Z,12.53
2022-10-21T10:46:03.941Z,12.47
2022-10-21T10:48:37.067Z,12.56
2022-10-21T10:51:25.664Z,12.55
2022-10-21T10:54:18.298Z,12.67
2022-10-21T10:56:54.932Z,12.66
2022-10-21T10:59:30.925Z,12.71
2022-10-21T11:02:07.554Z,12.65
2022-10-21T11:04:46.915Z,12.69
2022-10-21T11:07:47.479Z,12.46
2022-10-21T11:10:53.404Z,12.54
2022-10-21T11:13:23.703Z,12.31
2022-10-21T11:16:18.340Z,12.33
2022-10-21T11:19:22.815Z,12.55
2022-10-21T11:22:05.102Z,12.36
2022-10-21T11:25:09.339Z,12.34
2022-10-21T11:27:37.169Z,12.39
2022-10-21T11:30:13.643Z,12.56
2022-10-21T11:33:02.260Z,12.84
2022-10-21T11:35:42.086Z,12.98
2022-10-21T11:38:28.077Z,13.16
2022-10-21T11:41:21.862Z,13.13
2022-10-21T11:44:00.495Z,12.67
2022-10-21T11:46:47.006Z,12.57
2022-10-21T11:49:37.231Z,12.36
2022-10-21T11:52:39.062Z,12.42
2022-10-21T11:55:28.084Z,12.58
2022-10-21T11:58:32.849Z,12.88
2022-10-21T12:01:09.617Z,13.07
2022-10-21T12:03:58.320Z,13.18
2022-10-21T12:06:34.844Z,13.25
2022-10-21T12:09:17.918Z,13.30
2022-10-21T12:12:00.972Z,13.32
2022-10-21T12:14:50.479Z,13.29
2022-10-21T12:17:21.513Z,13.47
2022-10-21T12:20:24.000Z,13.09
2022-10-21T12:23:04.831Z,12.78
2022-10-21T12:25:32.653Z,12.53
2022-10-21T12:28:11.721Z,12.29
2022-10-21T12:30:54.486Z,12.05
2022-10-21T12:33:27.899Z,11.88
2022-10-21T12:36:14.324Z,11.74
2022-10-21T12:38:53.555Z,11.64
2022-10-21T12:41:24.531Z,11.66
2022-10-21T12:43:57.876Z,11.77
2022-10-21T12:46:29.269Z,11.82
2022-10-21T12:49:00.841Z,11.79
2022-10-21T12:51:31.228Z,12.01
2022-10-21T12:54:12.842Z,11.99
2022-10-21T12:56:47.135Z,12.05
2022-10-21T12:59:34.890Z,12.03
2022-10-21T13:02:05.455Z,11.96
2022-10-21T13:04:33.171Z,11.79
2022-10-21T13:07:15.829Z,11.79
2022-10-21T13:09:53.795Z,11.77
2022-10-21T13:12:24.405Z,11.76
2022-10-21T13:14:53.274Z,11.77
2022-10-21T13:17:23.694Z,11.81
2022-10-21T13:19:51.380Z,11.72
2022-10-21T13:22:32.886Z,11.62
2022-10-21T13:25:26.049Z,11.62
2022-10-21T13:27:53.745Z,11.58
2022-10-21T13:30:39.292Z,11.62
2022-10-21T13:33:20.249Z,11.80
2022-10-21T13:35:51.112Z,11.75
2022-10-21T13:38:29.571Z,11.75
2022-10-21T13:41:02.357Z,11.82
2022-10-21T13:43:44.724Z,11.74
2022-10-21T13:46:36.779Z,11.66
2022-10-21T13:49:24.128Z,11.60
2022-10-21T13:51:53.014Z,11.63
2022-10-21T13:54:20.963Z,11.53
2022-10-21T13:56:49.046Z,11.51
2022-10-21T13:59:30.149Z,11.44
2022-10-21T14:01:58.560Z,11.48
2022-10-21T14:04:31.384Z,11.58
2022-10-21T14:07:08.677Z,11.40
2022-10-21T14:09:45.236Z,11.56
2022-10-21T14:12:44.153Z,11.47
2022-10-21T14:15:19.618Z,11.54
2022-10-21T14:17:58.121Z,11.60
2022-10-21T14:20:34.024Z,11.55
2022-10-21T14:23:08.780Z,11.36
2022-10-21T14:25:36.714Z,11.40
2022-10-21T14:28:05.387Z,11.46
2022-10-21T14:30:36.826Z,11.33
2022-10-21T14:33:08.462Z,11.29
2022-10-21T14:35:36.245Z,11.16
2022-10-21T14:38:24.600Z,11.01
2022-10-21T14:41:05.425Z,10.83
2022-10-21T14:43:39.528Z,10.84
2022-10-21T14:46:09.689Z,10.74
2022-10-21T14:48:46.785Z,10.52
2022-10-21T14:51:21.173Z,10.64
2022-10-21T14:53:51.274Z,10.65
2022-10-21T14:56:29.761Z,10.63
2022-10-21T14:59:00.140Z,10.71
2022-10-21T15:01:28.125Z,10.64
2022-10-21T15:03:59.476Z,10.51
2022-10-21T15:06:34.777Z,10.47
2022-10-21T15:09:11.639Z,10.44
2022-10-21T15:11:41.870Z,10.48
2022-10-21T15:14:28.705Z,10.43
2022-10-21T15:16:59.331Z,10.48
2022-10-21T15:19:40.522Z,10.29
2022-10-21T15:22:29.739Z,10.23
2022-10-21T15:25:13.801Z,10.15
2022-10-21T15:27:43.005Z,10.22
2022-10-21T15:30:13.855Z,10.17
2022-10-21T15:32:41.477Z,10.20
2022-10-21T15:35:20.897Z,10.19
2022-10-21T15:37:53.667Z,10.23
2022-10-21T15:40:22.844Z,10.09
2022-10-21T15:42:50.609Z,10.04
2022-10-21T15:45:24.088Z,10.09
2022-10-21T15:47:53.438Z,10.18
2022-10-21T15:50:26.799Z,10.09
2022-10-21T15:55:23.416Z,10.01
2022-10-21T15:57:51.014Z,10.10
2022-10-21T16:00:22.502Z,9.99
2022-10-21T16:02:51.898Z,9.97
2022-10-21T16:05:21.523Z,9.88
2022-10-21T16:07:49.181Z,10.05
2022-10-21T16:10:35.223Z,9.88
2022-10-21T16:13:03.843Z,9.76
2022-10-21T16:15:31.670Z,9.61
2022-10-21T16:18:00.002Z,9.50
2022-10-21T16:20:30.544Z,9.60
2022-10-21T16:23:02.187Z,9.50
2022-10-21T16:25:32.007Z,9.36
2022-10-21T16:28:00.254Z,9.26
2022-10-21T16:30:33.729Z,9.19
2022-10-21T16:33:01.403Z,9.24
2022-10-21T16:35:29.264Z,9.15
2022-10-21T16:37:56.981Z,9.26
2022-10-21T16:40:25.991Z,9.41
2022-10-21T16:42:54.133Z,9.27
2022-10-21T16:45:24.310Z,9.23
2022-10-21T16:47:56.504Z,9.28
2022-10-21T16:50:41.197Z,9.28
2022-10-21T16:53:14.613Z,9.28
2022-10-21T16:55:42.649Z,9.19
2022-10-21T16:58:10.200Z,9.22
2022-10-21T17:00:38.139Z,9.16
2022-10-21T17:03:05.860Z,9.14
2022-10-21T17:08:06.683Z,9.05
2022-10-21T17:10:34.507Z,9.11
2022-10-21T17:13:02.105Z,9.02
2022-10-21T17:15:29.906Z,8.93
2022-10-21T17:17:57.712Z,8.94
2022-10-21T17:20:30.230Z,8.82
2022-10-21T17:22:59.511Z,8.76
2022-10-21T17:25:29.734Z,8.75
2022-10-21T17:27:58.166Z,8.71
2022-10-21T17:30:26.716Z,8.71
2022-10-21T17:32:54.384Z,8.65
2022-10-21T17:35:22.542Z,8.70
2022-10-21T17:37:51.001Z,8.70
2022-10-21T17:40:23.260Z,8.69
2022-10-21T17:42:50.938Z,8.57
2022-10-21T17:45:20.441Z,8.56
2022-10-21T17:47:48.829Z,8.59
2022-10-21T17:50:23.254Z,8.53
2022-10-21T17:52:52.255Z,8.37
2022-10-21T17:55:20.720Z,8.30
2022-10-21T17:57:48.556Z,8.20
2022-10-21T18:00:16.441Z,8.26
2022-10-21T18:02:44.105Z,8.22
2022-10-21T18:05:11.958Z,8.16
2022-10-21T18:07:39.824Z,8.11
2022-10-21T18:10:08.704Z,8.09
2022-10-21T18:12:37.098Z,8.00
2022-10-21T18:15:05.698Z,7.87
2022-10-21T18:17:34.515Z,7.74
2022-10-21T18:20:02.294Z,7.68
2022-10-21T18:22:30.135Z,7.56
2022-10-21T18:24:57.970Z,7.45
2022-10-21T18:27:25.550Z,7.43
2022-10-21T18:29:53.259Z,7.35
2022-10-21T18:32:21.035Z,7.36
2022-10-21T18:34:48.784Z,7.36
2022-10-21T18:37:16.444Z,7.29
2022-10-21T18:39:44.214Z,7.31
2022-10-21T18:42:11.943Z,7.27
2022-10-21T18:44:39.839Z,7.26
2022-10-21T18:47:07.433Z,7.22
2022-10-21T18:49:35.770Z,7.25
2022-10-21T18:52:03.511Z,7.22
2022-10-21T18:54:31.293Z,7.17
2022-10-21T18:56:58.817Z,7.20
2022-10-21T18:59:26.571Z,7.05
2022-10-21T19:01:54.975Z,7.00
2022-10-21T19:04:22.755Z,6.94
2022-10-21T19:06:50.472Z,6.87
2022-10-21T19:09:24.348Z,6.83
2022-10-21T19:11:53.209Z,6.93
2022-10-21T19:14:21.336Z,6.95
2022-10-21T19:16:49.673Z,6.94
2022-10-21T19:19:17.852Z,6.99
2022-10-21T19:21:45.451Z,7.14
2022-10-21T19:24:13.482Z,7.17
2022-10-21T19:26:42.806Z,7.03
2022-10-21T19:29:19.784Z,7.16
2022-10-21T19:34:28.396Z,7.05
2022-10-21T19:36:55.981Z,7.09
2022-10-21T19:39:23.836Z,7.04
2022-10-21T19:41:51.387Z,7.08
2022-10-21T19:44:19.348Z,7.18
2022-10-21T19:46:47.020Z,7.22
2022-10-21T19:49:15.411Z,7.40
2022-10-21T19:51:43.153Z,7.41
2022-10-21T19:54:13.271Z,7.46
2022-10-21T19:56:41.226Z,7.55
2022-10-21T19:59:09.868Z,7.61
2022-10-21T20:01:37.810Z,7.53
2022-10-21T20:04:06.038Z,7.59
2022-10-21T20:06:36.886Z,7.62
2022-10-21T20:09:11.575Z,7.57
2022-10-21T20:11:40.623Z,7.70
2022-10-21T20:14:11.575Z,7.71
2022-10-21T20:16:42.276Z,7.87
2022-10-21T20:19:12.667Z,7.86
2022-10-21T20:21:41.015Z,8.04
2022-10-21T20:24:09.913Z,8.00
2022-10-21T20:29:11.208Z,7.97
2022-10-21T20:31:38.840Z,8.08
2022-10-21T20:34:06.668Z,8.11
2022-10-21T20:36:34.564Z,8.29
2022-10-21T20:39:03.170Z,8.25
2022-10-21T20:41:34.697Z,8.32
2022-10-21T20:44:04.510Z,8.33
2022-10-21T20:46:35.124Z,8.45
2022-10-21T20:49:07.065Z,8.38
2022-10-21T20:51:36.577Z,8.49
2022-10-21T20:54:07.174Z,8.49
2022-10-21T20:56:37.325Z,8.51
2022-10-21T20:59:06.647Z,8.55
2022-10-21T21:01:37.030Z,8.59
2022-10-21T21:04:10.963Z,8.66
2022-10-21T21:06:48.141Z,8.62
2022-10-21T21:12:07.542Z,8.78
2022-10-21T21:14:35.509Z,8.83
2022-10-21T21:17:03.726Z,8.81
2022-10-21T21:19:33.233Z,8.93
2022-10-21T21:22:00.905Z,8.80
2022-10-21T21:24:28.705Z,8.88
2022-10-21T21:26:56.408Z,8.82
2022-10-21T21:29:24.298Z,8.85
2022-10-21T21:31:52.032Z,8.87
2022-10-21T21:34:20.046Z,8.85
2022-10-21T21:36:47.681Z,8.92
2022-10-21T21:41:48.337Z,8.94
2022-10-21T21:44:16.090Z,8.88
2022-10-21T21:46:43.748Z,8.86
2022-10-21T21:49:11.630Z,8.88
2022-10-21T21:51:39.222Z,8.91
2022-10-21T21:54:09.933Z,8.85
2022-10-21T21:56:37.609Z,8.93
2022-10-21T21:59:05.404Z,8.87
2022-10-21T22:01:33.156Z,8.87
2022-10-21T22:04:01.566Z,8.84
2022-10-21T22:06:32.993Z,8.90
2022-10-21T22:09:01.740Z,8.89
2022-10-21T22:11:33.386Z,8.99
2022-10-21T22:14:02.491Z,8.96
2022-10-21T22:16:30.632Z,8.94
2022-10-21T22:19:00.065Z,9.00
2022-10-21T22:21:29.769Z,8.94
2022-10-21T22:23:57.734Z,8.95
2022-10-21T22:26:26.934Z,8.92
2022-10-21T22:28:55.713Z,8.89
2022-10-21T22:31:29.027Z,8.90
2022-10-21T22:34:00.784Z,8.92
2022-10-21T22:36:28.902Z,8.95
2022-10-21T22:38:57.380Z,8.94
2022-10-21T22:41:25.356Z,8.90
2022-10-21T22:43:53.203Z,9.05
2022-10-21T22:46:33.535Z,9.12
2022-10-21T22:49:06.553Z,9.13
2022-10-21T22:51:34.817Z,9.13
2022-10-21T22:54:03.443Z,9.07
2022-10-21T22:56:32.177Z,8.90
2022-10-21T22:59:00.153Z,8.88
2022-10-21T23:01:30.378Z,8.79
2022-10-21T23:04:02.797Z,8.91
2022-10-21T23:06:32.179Z,8.99
2022-10-21T23:09:00.683Z,8.99
2022-10-21T23:11:29.345Z,8.95
2022-10-21T23:14:03.414Z,8.92
2022-10-21T23:16:36.174Z,8.81
2022-10-21T23:19:05.138Z,8.76
2022-10-21T23:21:33.946Z,8.81
2022-10-21T23:24:01.810Z,8.85
2022-10-21T23:26:29.388Z,8.88
2022-10-21T23:28:57.215Z,8.85
2022-10-21T23:31:24.814Z,8.83
2022-10-21T23:33:52.573Z,8.88
2022-10-21T23:36:20.239Z,8.96
2022-10-21T23:38:48.121Z,8.96
2022-10-21T23:41:15.772Z,8.88
2022-10-21T23:43:43.603Z,8.84
2022-10-21T23:46:11.233Z,8.89
2022-10-21T23:48:39.048Z,8.94
2022-10-21T23:51:06.679Z,8.82
2022-10-21T23:53:34.682Z,8.92
2022-10-21T23:56:02.274Z,8.92
2022-10-21T23:58:30.306Z,8.87
